Time;durP1;ratioP1;P1;durP2;ratioP2;P2;SDS_P1;SDS_P2;PMS_P1;PMS_P2;Temp;Humidity;BMP_temperature;BMP_pressure;BME280_temperature;BME280_humidity;BME280_pressure;Samples;Min_cycle;Max_cycle;Signal;HPM_P1;HPM_P2
2022/09/02 00:02:22;;;;;;;14.48;12.98;;;10.60;1.00;;;;;;4899309;29;20212;-87
2022/09/02 00:04:49;;;;;;;14.38;12.90;;;10.60;1.00;;;;;;4899598;29;20205;-87
2022/09/02 00:07:16;;;;;;;15.10;13.43;;;10.60;1.00;;;;;;4899215;29;20202;-87
2022/09/02 00:09:43;;;;;;;14.80;13.23;;;10.50;1.00;;;;;;4899510;29;20203;-89
2022/09/02 00:12:11;;;;;;;15.63;13.70;;;10.50;1.00;;;;;;4899817;29;20218;-86
2022/09/02 00:14:39;;;;;;;15.95;13.77;;;10.50;1.00;;;;;;4899488;29;20543;-87
2022/09/02 00:17:06;;;;;;;16.52;14.13;;;10.50;1.00;;;;;;4902875;29;20230;-86
2022/09/02 00:19:34;;;;;;;15.32;13.52;;;10.40;1.00;;;;;;4899135;29;20202;-87
2022/09/02 00:22:02;;;;;;;14.27;12.82;;;10.40;1.00;;;;;;4899226;29;20194;-88
2022/09/02 00:24:30;;;;;;;13.93;12.65;;;10.40;1.00;;;;;;4899007;29;20216;-89
2022/09/02 00:26:57;;;;;;;11.55;10.65;;;10.30;1.00;;;;;;4898561;29;20288;-87
2022/09/02 00:29:27;;;;;;;11.20;10.30;;;10.30;1.00;;;;;;4899636;29;20198;-89
2022/09/02 00:31:54;;;;;;;12.68;11.57;;;10.20;1.00;;;;;;4899522;29;20599;-89
2022/09/02 00:34:21;;;;;;;12.88;11.73;;;10.20;1.00;;;;;;4898946;29;20198;-88
2022/09/02 00:36:48;;;;;;;12.35;11.32;;;10.10;1.00;;;;;;4899182;29;20205;-87
2022/09/02 00:39:15;;;;;;;9.73;9.00;;;10.10;1.00;;;;;;4898443;29;20205;-88
2022/09/02 00:41:43;;;;;;;12.00;11.05;;;10.10;1.00;;;;;;4899077;29;20254;-89
2022/09/02 00:44:14;;;;;;;10.32;9.55;;;10.00;1.00;;;;;;4899066;29;20206;-87
2022/09/02 00:46:43;;;;;;;11.82;10.88;;;10.00;1.00;;;;;;4899440;29;20269;-88
2022/09/02 00:49:15;;;;;;;11.50;10.63;;;10.00;65.70;;;;;;4898944;29;20205;-88
2022/09/02 00:51:51;;;;;;;10.10;9.38;;;10.00;1.00;;;;;;4898737;29;20244;-87
2022/09/02 00:54:21;;;;;;;9.98;9.25;;;10.00;1.00;;;;;;4898848;29;20201;-89
2022/09/02 00:56:51;;;;;;;9.50;8.80;;;10.00;1.00;;;;;;4898741;29;20600;-88
2022/09/02 00:59:23;;;;;;;9.30;8.65;;;9.90;1.00;;;;;;4898820;29;20243;-89
2022/09/02 01:01:52;;;;;;;10.20;9.43;;;9.90;1.00;;;;;;4898690;29;20206;-86
2022/09/02 01:04:19;;;;;;;10.02;9.27;;;9.90;1.00;;;;;;4898667;29;20618;-88
2022/09/02 01:06:46;;;;;;;11.30;10.45;;;9.90;1.00;;;;;;4898848;29;20621;-88
2022/09/02 01:09:15;;;;;;;9.88;9.18;;;9.90;1.00;;;;;;4898492;29;20738;-87
2022/09/02 01:11:46;;;;;;;8.75;8.15;;;9.80;11.70;;;;;;4898389;29;20213;-87
2022/09/02 01:14:15;;;;;;;7.30;6.82;;;9.80;1.00;;;;;;4898788;29;20194;-87
2022/09/02 01:16:45;;;;;;;8.02;7.53;;;9.80;1.00;;;;;;4898526;29;20202;-87
2022/09/02 01:19:21;;;;;;;8.20;7.65;;;9.80;24.10;;;;;;4898297;29;20198;-86
2022/09/02 01:21:51;;;;;;;6.30;5.93;;;9.70;43.80;;;;;;4911475;29;20206;-88
2022/09/02 01:24:20;;;;;;;4.88;4.63;;;9.70;99.90;;;;;;4898552;29;20202;-88
2022/09/02 01:26:47;;;;;;;4.40;4.20;;;9.70;99.90;;;;;;4898481;29;20201;-87
2022/09/02 01:29:16;;;;;;;6.75;6.30;;;9.70;99.90;;;;;;4898256;29;20058;-88
2022/09/02 01:31:44;;;;;;;5.82;5.47;;;9.60;95.50;;;;;;4898304;29;20274;-89
2022/09/02 01:34:11;;;;;;;6.63;6.20;;;9.70;99.90;;;;;;4898200;29;20198;-87
2022/09/02 01:36:39;;;;;;;5.00;4.70;;;9.60;99.90;;;;;;4898461;29;20238;-87
2022/09/02 01:39:08;;;;;;;4.10;3.90;;;9.60;99.90;;;;;;4897912;29;20190;-86
2022/09/02 01:41:36;;;;;;;5.03;4.72;;;9.60;99.90;;;;;;4898775;29;20205;-88
2022/09/02 01:44:04;;;;;;;3.05;2.90;;;9.60;99.90;;;;;;4898273;29;20532;-89
2022/09/02 01:46:31;;;;;;;2.70;2.58;;;9.50;99.90;;;;;;4898074;29;20234;-87
2022/09/02 01:48:58;;;;;;;3.92;3.75;;;9.50;99.90;;;;;;4897947;29;20601;-86
2022/09/02 01:51:25;;;;;;;2.47;2.38;;;9.50;99.90;;;;;;4898019;29;20236;-89
2022/09/02 01:53:52;;;;;;;3.90;3.67;;;9.40;99.90;;;;;;4897937;29;20201;-87
2022/09/02 01:56:20;;;;;;;6.43;6.03;;;9.40;99.90;;;;;;4898096;29;20202;-88
2022/09/02 01:58:48;;;;;;;2.63;2.53;;;9.40;99.90;;;;;;4898512;29;20202;-87
2022/09/02 02:01:15;;;;;;;1.83;1.77;;;9.40;99.90;;;;;;4897585;29;20701;-88
2022/09/02 02:03:42;;;;;;;1.30;1.30;;;9.40;99.90;;;;;;4898227;29;20266;-87
2022/09/02 02:06:11;;;;;;;1.50;1.50;;;9.40;99.90;;;;;;4898045;29;20267;-88
2022/09/02 02:08:38;;;;;;;;;;;9.40;99.90;;;;;;4897596;29;20327;-88
2022/09/02 02:11:06;;;;;;;12.50;11.40;;;9.40;99.90;;;;;;4896458;29;20473;-89
2022/09/02 02:13:34;;;;;;;;;;;9.50;1.00;;;;;;4898155;29;20201;-87
2022/09/02 02:16:01;;;;;;;10.07;9.27;;;9.50;1.00;;;;;;4896482;29;20430;-88
2022/09/02 02:18:29;;;;;;;1.60;1.58;;;9.40;99.90;;;;;;4898121;29;20205;-87
2022/09/02 02:20:57;;;;;;;1.50;1.50;;;9.40;1.00;;;;;;4897734;29;20250;-88
2022/09/02 02:23:24;;;;;;;5.15;4.85;;;9.40;99.90;;;;;;4897565;29;20976;-88
2022/09/02 02:25:51;;;;;;;4.80;4.53;;;9.40;1.00;;;;;;4897812;29;20194;-88
2022/09/02 02:28:18;;;;;;;5.13;4.82;;;9.40;99.90;;;;;;4879249;29;20206;-88
2022/09/02 02:30:46;;;;;;;8.40;7.80;;;9.40;1.00;;;;;;4884729;29;20198;-88
2022/09/02 02:33:13;;;;;;;9.20;8.55;;;9.40;99.90;;;;;;4897450;29;20237;-89
2022/09/02 02:35:41;;;;;;;9.48;8.80;;;9.40;1.00;;;;;;4897372;29;20206;-87
2022/09/02 02:38:09;;;;;;;8.63;8.02;;;9.40;1.00;;;;;;4893436;29;20202;-90
2022/09/02 02:40:36;;;;;;;8.63;8.00;;;9.40;1.00;;;;;;4894814;29;20216;-91
2022/09/02 02:43:03;;;;;;;8.57;7.97;;;9.30;1.00;;;;;;4897271;29;20201;-88
2022/09/02 02:45:30;;;;;;;7.32;6.85;;;9.30;99.90;;;;;;4897330;29;20598;-88
2022/09/02 02:47:59;;;;;;;7.05;6.60;;;9.30;4.00;;;;;;4898020;29;20266;-88
2022/09/02 02:50:26;;;;;;;3.15;3.00;;;9.30;99.90;;;;;;4901245;29;20205;-90
2022/09/02 02:52:55;;;;;;;4.57;4.30;;;9.40;1.00;;;;;;4901089;29;20260;-90
2022/09/02 02:55:23;;;;;;;4.45;4.20;;;9.30;1.00;;;;;;4901497;29;20250;-89
2022/09/02 02:57:50;;;;;;;4.82;4.53;;;9.20;1.00;;;;;;4901122;29;20194;-88
2022/09/02 03:00:21;;;;;;;6.68;6.25;;;9.20;1.00;;;;;;4901497;29;20204;-90
2022/09/02 03:02:49;;;;;;;4.20;3.95;;;9.10;1.00;;;;;;4901154;29;20201;-88
2022/09/02 03:05:17;;;;;;;4.32;4.07;;;9.10;1.00;;;;;;4901189;29;20224;-88
2022/09/02 03:07:44;;;;;;;6.07;5.68;;;9.10;1.00;;;;;;4901058;29;20612;-88
2022/09/02 03:10:13;;;;;;;1.83;1.77;;;9.00;1.00;;;;;;4900923;29;20579;-89
2022/09/02 03:12:41;;;;;;;1.33;1.30;;;9.00;45.00;;;;;;4899829;29;20218;-91
2022/09/02 03:15:10;;;;;;;1.77;1.70;;;9.10;99.90;;;;;;4889014;29;20210;-90
2022/09/02 03:17:38;;;;;;;1.27;1.25;;;9.10;14.40;;;;;;4879860;29;20198;-89
2022/09/02 03:20:07;;;;;;;1.25;1.25;;;9.10;1.00;;;;;;4899613;29;20198;-91
2022/09/02 03:22:37;;;;;;;;;;;9.10;1.00;;;;;;4901996;29;20209;-90
2022/09/02 03:25:05;;;;;;;6.32;5.93;;;8.80;1.00;;;;;;4902511;29;20431;-90
2022/09/02 03:27:33;;;;;;;;;;;8.80;33.80;;;;;;4900869;29;20202;-88
2022/09/02 03:30:00;;;;;;;;;;;8.80;99.90;;;;;;4904111;29;19970;-89
2022/09/02 03:32:27;;;;;;;0.00;0.00;;;8.80;99.90;;;;;;4901030;29;20446;-89
2022/09/02 03:34:54;;;;;;;;;;;8.80;99.90;;;;;;4901689;29;20293;-89
2022/09/02 03:37:21;;;;;;;;;;;8.80;99.90;;;;;;4902564;29;19927;-88
2022/09/02 03:39:49;;;;;;;;;;;8.80;1.00;;;;;;4902500;29;19923;-91
2022/09/02 03:42:16;;;;;;;;;;;8.80;1.00;;;;;;4902437;29;19927;-89
2022/09/02 03:44:43;;;;;;;;;;;8.80;1.00;;;;;;4905373;29;19923;-89
2022/09/02 03:47:13;;;;;;;2.80;2.70;;;8.80;1.00;;;;;;4902277;29;19938;-90
2022/09/02 03:49:39;;;;;;;;;;;8.80;1.00;;;;;;4900611;29;20206;-89
2022/09/02 03:52:07;;;;;;;9.57;8.88;;;8.80;1.00;;;;;;4899139;29;20908;-89
2022/09/02 03:54:34;;;;;;;2.40;2.30;;;8.80;1.00;;;;;;4900253;29;20266;-90
2022/09/02 03:57:02;;;;;;;2.45;2.30;;;8.80;1.00;;;;;;4900426;29;20209;-89
2022/09/02 03:59:29;;;;;;;0.50;0.50;;;8.80;1.00;;;;;;4899676;29;20663;-90
2022/09/02 04:01:56;;;;;;;0.55;0.55;;;8.80;1.00;;;;;;4900000;29;20206;-91
2022/09/02 04:04:23;;;;;;;4.50;4.22;;;8.80;29.00;;;;;;4900388;29;20190;-89
2022/09/02 04:06:50;;;;;;;3.95;3.72;;;8.80;81.40;;;;;;4900597;29;20219;-90
2022/09/02 04:09:18;;;;;;;5.32;5.03;;;8.80;1.00;;;;;;4895045;29;20656;-89
2022/09/02 04:11:45;;;;;;;5.97;5.57;;;8.90;1.00;;;;;;4899469;29;20664;-91
2022/09/02 04:14:18;;;;;;;5.97;5.60;;;8.90;1.00;;;;;;4906554;29;20198;-91
2022/09/02 04:16:45;;;;;;;4.82;4.55;;;8.80;99.90;;;;;;4902985;29;20262;-91
2022/09/02 04:19:13;;;;;;;5.30;4.97;;;8.90;61.40;;;;;;4897860;29;20224;-90
2022/09/02 04:21:42;;;;;;;6.10;5.72;;;8.80;25.50;;;;;;4906194;29;20198;-89
2022/09/02 04:24:12;;;;;;;5.32;5.03;;;8.80;1.00;;;;;;4905026;29;20226;-88
2022/09/02 04:26:40;;;;;;;5.30;5.00;;;8.80;1.00;;;;;;4904146;29;20216;-89
2022/09/02 04:29:10;;;;;;;5.97;5.57;;;8.80;98.20;;;;;;4908441;29;20200;-90
2022/09/02 04:31:40;;;;;;;4.30;4.05;;;8.80;1.00;;;;;;4906489;29;20233;-88
2022/09/02 04:34:08;;;;;;;11.95;10.95;;;8.80;1.00;;;;;;4907552;29;20502;-90
2022/09/02 04:36:43;;;;;;;4.97;4.68;;;8.80;1.00;;;;;;4908225;29;20198;-88
2022/09/02 04:39:17;;;;;;;6.13;5.75;;;8.80;1.00;;;;;;4911455;29;20193;-91
2022/09/02 04:41:45;;;;;;;6.03;5.63;;;8.90;99.90;;;;;;4914468;29;20290;-90
2022/09/02 04:44:13;;;;;;;5.25;4.95;;;8.90;1.00;;;;;;4921068;29;20222;-89
2022/09/02 04:46:54;;;;;;;8.73;8.10;;;9.10;1.00;;;;;;4906628;29;20452;-88
2022/09/02 04:49:22;;;;;;;1.88;1.80;;;9.20;1.00;;;;;;4905702;29;20742;-92
2022/09/02 04:51:53;;;;;;;3.22;3.05;;;9.30;1.00;;;;;;4900306;29;20226;-89
2022/09/02 04:54:24;;;;;;;1.92;1.85;;;9.40;99.90;;;;;;4907154;29;20213;-87
2022/09/02 04:56:54;;;;;;;1.60;1.52;;;9.50;99.90;;;;;;4897392;29;20282;-89
2022/09/02 04:59:35;;;;;;;0.77;0.75;;;9.60;9.70;;;;;;4915263;29;20218;-89
2022/09/02 05:02:04;;;;;;;0.95;0.95;;;9.70;99.90;;;;;;4907447;29;20213;-86
2022/09/02 05:04:32;;;;;;;0.88;0.88;;;9.90;99.90;;;;;;4899093;29;20197;-85
2022/09/02 05:07:00;;;;;;;;;;;10.30;30.00;;;;;;4899350;29;20643;-88
2022/09/02 05:09:27;;;;;;;;;;;11.10;1.00;;;;;;4898301;29;19946;-88
2022/09/02 05:11:56;;;;;;;14.27;12.88;;;11.90;1.00;;;;;;4891087;29;20450;-89
2022/09/02 05:14:23;;;;;;;;;;;12.30;99.90;;;;;;4911268;29;20568;-90
2022/09/02 05:16:52;;;;;;;10.90;10.10;;;12.30;1.00;;;;;;4915094;29;20491;-88
2022/09/02 05:19:22;;;;;;;3.90;3.72;;;12.30;1.00;;;;;;4916533;29;20537;-88
2022/09/02 05:21:52;;;;;;;2.45;2.35;;;12.20;99.90;;;;;;4916472;29;20201;-89
2022/09/02 05:24:19;;;;;;;1.90;1.83;;;12.20;96.70;;;;;;4916987;29;20197;-89
2022/09/02 05:26:46;;;;;;;1.50;1.50;;;12.10;1.00;;;;;;4898523;29;20201;-88
2022/09/02 05:29:14;;;;;;;2.20;2.15;;;12.10;1.00;;;;;;4897716;29;20674;-88
2022/09/02 05:31:41;;;;;;;;;;;12.00;1.00;;;;;;4897817;29;20222;-90
2022/09/02 05:34:08;;;;;;;;;;;12.00;1.00;;;;;;4898217;29;20243;-89
2022/09/02 05:36:36;;;;;;;2.20;2.15;;;11.90;1.00;;;;;;4898806;29;20566;-88
2022/09/02 05:39:05;;;;;;;2.20;2.15;;;11.90;1.00;;;;;;4898182;29;20198;-88
2022/09/02 05:41:33;;;;;;;2.70;2.60;;;11.90;1.00;;;;;;4899081;29;20293;-88
2022/09/02 05:44:02;;;;;;;3.20;3.10;;;11.90;1.00;;;;;;4898604;29;20210;-89
2022/09/02 05:46:29;;;;;;;2.30;2.25;;;12.00;1.00;;;;;;4898389;29;20198;-88
2022/09/02 05:49:06;;;;;;;1.15;1.15;;;12.10;1.00;;;;;;4898609;29;20601;-89
2022/09/02 05:51:37;;;;;;;1.75;1.70;;;12.40;99.90;;;;;;4898155;29;20319;-89
2022/09/02 05:54:05;;;;;;;9.73;9.10;;;13.30;1.00;;;;;;4898154;29;20253;-90
2022/09/02 05:56:32;;;;;;;9.23;8.60;;;14.40;1.00;;;;;;4897705;29;20206;-89
2022/09/02 05:58:59;;;;;;;8.57;8.05;;;14.00;1.00;;;;;;4898071;29;20205;-88
2022/09/02 06:01:29;;;;;;;8.48;7.95;;;14.00;1.00;;;;;;4898061;29;20225;-92
2022/09/02 06:04:04;;;;;;;8.95;8.38;;;14.00;1.00;;;;;;4899224;29;20202;-93
2022/09/02 06:06:42;;;;;;;10.43;9.70;;;14.00;1.00;;;;;;4898888;29;20193;-91
2022/09/02 06:09:20;;;;;;;11.65;10.75;;;14.50;27.00;;;;;;4886982;29;20205;-95
2022/09/02 06:12:00;;;;;;;14.77;13.25;;;15.40;1.00;;;;;;4899603;29;20233;-91
2022/09/02 06:14:50;;;;;;;;;;;16.40;1.00;;;;;;4899040;29;20058;-91
2022/09/02 06:20:45;;;;;;;;;;;18.10;99.90;;;;;;4907297;29;20075;-91
2022/09/02 06:23:51;;;;;;;;;;;;;;;;;;;;;
2022/09/02 06:26:56;;;;;;;;;;;20.60;99.90;;;;;;4880845;29;20079;-90
2022/09/02 06:38:33;;;;;;;;;;;24.10;1.00;;;;;;4782145;30;20337;-90
2022/09/02 06:41:00;;;;;;;;;;;24.10;1.00;;;;;;4804971;29;20298;-94
2022/09/02 06:46:14;;;;;;;;;;;24.60;1.00;;;;;;4901306;29;19984;-88
2022/09/02 06:48:41;;;;;;;;;;;25.00;1.00;;;;;;4883997;29;20301;-87
2022/09/02 06:51:08;;;;;;;;;;;25.20;1.00;;;;;;4901304;29;19923;-88
2022/09/02 06:53:36;;;;;;;;;;;25.70;1.00;;;;;;4901192;29;19923;-86
2022/09/02 06:56:06;;;;;;;;;;;26.10;1.00;;;;;;4901252;29;19924;-90
2022/09/02 06:58:33;;;;;;;;;;;26.60;1.00;;;;;;4901189;29;19924;-89
2022/09/02 07:01:00;;;;;;;69.75;28.50;;;27.10;1.00;;;;;;4900797;29;20078;-89
2022/09/02 07:06:12;;;;;;;65.38;27.65;;;27.80;1.00;;;;;;4908428;29;20206;-90
2022/09/02 07:08:43;;;;;;;69.70;28.23;;;28.00;1.00;;;;;;4903084;29;20185;-89
2022/09/02 07:11:16;;;;;;;;;;;28.40;1.00;;;;;;4912229;29;20629;-91
2022/09/02 07:13:43;;;;;;;;;;;29.00;1.00;;;;;;4902266;29;20050;-90
2022/09/02 07:16:11;;;;;;;66.00;28.20;;;29.10;1.00;;;;;;4909938;29;20044;-90
2022/09/02 07:18:41;;;;;;;55.20;25.83;;;29.00;1.00;;;;;;4920530;29;20212;-87
2022/09/02 07:21:09;;;;;;;57.50;26.10;;;28.90;1.00;;;;;;4902015;29;20206;-87
2022/09/02 07:23:37;;;;;;;67.22;27.38;;;28.70;1.00;;;;;;4902273;29;20222;-93
2022/09/02 07:26:12;;;;;;;69.07;27.77;;;28.60;1.00;;;;;;4919751;29;20197;-88
2022/09/02 07:28:39;;;;;;;71.03;28.05;;;28.70;1.00;;;;;;4903164;29;20205;-90
2022/09/02 07:31:08;;;;;;;65.72;27.23;;;29.10;1.00;;;;;;4900383;29;20594;-88
2022/09/02 07:33:36;;;;;;;66.53;27.35;;;29.40;1.00;;;;;;4899946;29;20198;-87
2022/09/02 07:36:04;;;;;;;61.70;27.23;;;29.70;1.00;;;;;;4899896;29;20194;-87
2022/09/02 07:38:31;;;;;;;;;;;30.20;1.00;;;;;;4900421;29;20608;-89
2022/09/02 07:40:59;;;;;;;59.70;27.08;;;30.40;1.00;;;;;;4900073;29;20054;-87
2022/09/02 07:43:28;;;;;;;59.30;26.83;;;30.60;1.00;;;;;;4899920;29;20226;-87
2022/09/02 07:45:55;;;;;;;;;;;30.90;1.00;;;;;;4899940;29;20052;-87
2022/09/02 07:48:23;;;;;;;61.20;27.42;;;31.00;1.00;;;;;;4900203;29;20196;-88
2022/09/02 07:50:51;;;;;;;71.18;28.58;;;30.80;1.00;;;;;;4899344;29;20209;-88
2022/09/02 07:53:23;;;;;;;71.13;28.63;;;30.70;1.00;;;;;;4914337;29;20186;-92
2022/09/02 07:55:55;;;;;;;74.38;28.90;;;30.70;1.00;;;;;;4922648;29;20210;-93
2022/09/02 07:58:25;;;;;;;55.03;26.15;;;30.90;1.00;;;;;;4915486;29;20198;-92
2022/09/02 08:00:55;;;;;;;68.50;28.05;;;30.60;1.00;;;;;;4904680;29;20259;-94
2022/09/02 08:03:30;;;;;;;71.68;28.67;;;30.20;1.00;;;;;;4904011;29;20209;-96
2022/09/02 08:06:01;;;;;;;75.70;29.08;;;30.20;1.00;;;;;;4922331;29;20189;-94
2022/09/02 08:08:35;;;;;;;74.78;28.92;;;30.40;1.00;;;;;;4922658;29;20178;-91
2022/09/02 08:11:13;;;;;;;80.85;29.75;;;30.90;1.00;;;;;;4922710;29;20230;-93
2022/09/02 08:13:41;;;;;;;80.68;29.60;;;31.20;1.00;;;;;;4922541;29;20214;-94
2022/09/02 08:16:12;;;;;;;76.10;29.15;;;30.90;1.00;;;;;;4922791;29;20210;-94
2022/09/02 08:18:49;;;;;;;75.35;29.00;;;30.60;1.00;;;;;;4922368;29;20217;-93
2022/09/02 08:21:16;;;;;;;84.05;30.20;;;30.60;1.00;;;;;;4894208;29;20552;-88
2022/09/02 08:23:43;;;;;;;82.43;30.00;;;31.00;1.00;;;;;;4898470;29;20218;-87
2022/09/02 08:26:10;;;;;;;82.18;29.80;;;31.20;1.00;;;;;;4899035;29;20199;-88
2022/09/02 08:28:44;;;;;;;87.25;30.20;;;31.20;1.00;;;;;;4904848;29;20210;-94
2022/09/02 08:31:42;;;;;;;87.03;30.10;;;31.30;1.00;;;;;;4922654;29;20189;-93
2022/09/02 08:34:09;;;;;;;88.45;30.27;;;31.70;1.00;;;;;;4846497;29;20202;-93
2022/09/02 08:36:38;;;;;;;84.50;30.40;;;32.00;1.00;;;;;;4835738;29;20205;-90
2022/09/02 08:39:20;;;;;;;86.10;30.13;;;32.10;1.00;;;;;;4836223;29;20291;-93
2022/09/02 08:44:57;;;;;;;76.05;29.20;;;32.50;1.00;;;;;;4820773;29;20216;-92
2022/09/02 08:48:18;;;;;;;;;;;;;;;;;;;;;
2022/09/02 08:51:00;;;;;;;86.95;30.27;;;31.80;1.00;;;;;;4807198;29;20228;-88
2022/09/02 08:53:32;;;;;;;87.05;30.35;;;31.80;1.00;;;;;;4819960;29;20826;-88
2022/09/02 08:56:01;;;;;;;85.53;30.05;;;31.80;1.00;;;;;;4823227;29;20200;-88
2022/09/02 08:58:33;;;;;;;86.40;30.13;;;31.80;1.00;;;;;;4822358;29;20558;-88
2022/09/02 09:01:10;;;;;;;83.35;30.27;;;31.70;1.00;;;;;;4822573;29;20205;-87
2022/09/02 09:03:52;;;;;;;76.45;29.23;;;31.70;1.00;;;;;;4822677;29;20217;-89
2022/09/02 09:06:30;;;;;;;84.78;30.10;;;31.70;1.00;;;;;;4822217;29;20211;-87
2022/09/02 09:09:05;;;;;;;83.63;29.98;;;31.90;1.00;;;;;;4822728;29;20317;-88
2022/09/02 09:11:39;;;;;;;79.60;29.80;;;32.00;1.00;;;;;;4822373;29;20196;-87
2022/09/02 09:14:21;;;;;;;76.65;29.30;;;32.10;1.00;;;;;;4822767;29;20197;-87
2022/09/02 09:16:56;;;;;;;77.97;29.35;;;31.70;1.00;;;;;;4822264;29;20196;-89
2022/09/02 09:19:35;;;;;;;82.22;29.85;;;31.30;1.00;;;;;;4833853;29;20215;-88
2022/09/02 09:22:02;;;;;;;65.00;27.58;;;30.80;1.00;;;;;;4809739;29;20197;-90
2022/09/02 09:24:35;;;;;;;65.70;27.75;;;30.40;1.00;;;;;;4822102;29;20594;-87
2022/09/02 09:27:05;;;;;;;66.60;27.95;;;30.50;1.00;;;;;;4825465;29;20279;-88
2022/09/02 09:29:33;;;;;;;;;;;30.40;1.00;;;;;;4831237;29;20501;-86
2022/09/02 09:32:00;;;;;;;66.75;27.70;;;29.70;1.00;;;;;;4821906;29;20255;-88
2022/09/02 09:34:58;;;;;;;56.83;26.25;;;29.40;1.00;;;;;;4822179;29;20201;-89
2022/09/02 09:37:30;;;;;;;24.48;18.63;;;29.10;1.00;;;;;;4821880;29;20227;-84
2022/09/02 09:39:57;;;;;;;23.15;18.13;;;28.20;1.00;;;;;;4822306;29;20212;-88
2022/09/02 09:42:33;;;;;;;25.92;18.85;;;27.80;1.00;;;;;;4821717;29;20207;-84
2022/09/02 09:45:00;;;;;;;29.80;20.50;;;27.90;1.00;;;;;;4821853;29;20289;-89
2022/09/02 09:47:27;;;;;;;28.10;19.85;;;28.10;1.00;;;;;;4821625;29;20202;-88
2022/09/02 09:50:12;;;;;;;22.27;17.17;;;28.10;1.00;;;;;;4821904;29;20573;-85
2022/09/02 09:52:39;;;;;;;20.27;16.25;;;27.50;1.00;;;;;;4834661;29;20225;-87
2022/09/02 09:55:11;;;;;;;21.48;16.83;;;26.80;1.00;;;;;;4822167;29;20214;-86
2022/09/02 09:57:39;;;;;;;23.00;17.63;;;26.80;1.00;;;;;;4821831;29;20202;-88
2022/09/02 10:00:21;;;;;;;;;;;26.80;1.00;;;;;;4822339;29;20143;-87
2022/09/02 10:02:50;;;;;;;16.88;14.98;;;26.50;1.00;;;;;;4819776;29;20285;-87
2022/09/02 10:05:28;;;;;;;35.78;20.98;;;25.80;1.00;;;;;;4821838;29;20228;-88
2022/09/02 10:07:58;;;;;;;36.90;21.52;;;25.00;1.00;;;;;;4821639;29;20189;-86
2022/09/02 10:10:26;;;;;;;35.60;21.13;;;24.20;1.00;;;;;;4871067;29;20194;-87
2022/09/02 10:12:56;;;;;;;27.17;18.88;;;23.40;1.00;;;;;;4881725;29;20199;-90
2022/09/02 10:15:34;;;;;;;24.63;17.83;;;22.70;1.00;;;;;;4879198;29;20210;-87
2022/09/02 10:18:15;;;;;;;25.55;18.10;;;22.40;1.00;;;;;;4878803;29;20198;-86
2022/09/02 10:20:55;;;;;;;16.33;14.57;;;21.90;1.00;;;;;;4878912;29;20204;-87
2022/09/02 10:23:38;;;;;;;14.10;12.73;;;21.60;1.00;;;;;;4878675;29;20192;-86
2022/09/02 10:26:22;;;;;;;12.07;11.07;;;21.20;1.00;;;;;;4878964;29;20192;-86
2022/09/02 10:29:09;;;;;;;11.35;10.45;;;21.00;1.00;;;;;;4882886;29;20194;-89
2022/09/02 10:31:41;;;;;;;;;;;20.70;1.00;;;;;;4885852;29;20799;-88
2022/09/02 10:34:20;;;;;;;15.85;14.10;;;20.40;1.00;;;;;;4864471;29;20436;-86
2022/09/02 10:37:11;;;;;;;11.13;10.23;;;20.30;1.00;;;;;;4878860;29;20246;-87
2022/09/02 10:40:12;;;;;;;11.25;10.35;;;20.10;1.00;;;;;;4869232;29;20191;-87
2022/09/02 10:42:50;;;;;;;12.13;11.13;;;20.20;1.00;;;;;;4864957;29;20244;-88
2022/09/02 10:45:33;;;;;;;12.23;11.18;;;20.60;1.00;;;;;;4878618;29;20214;-87
2022/09/02 10:48:17;;;;;;;12.40;11.32;;;21.00;1.00;;;;;;4867667;29;20251;-88
2022/09/02 10:50:52;;;;;;;12.65;11.55;;;21.40;1.00;;;;;;4881927;29;20196;-87
2022/09/02 10:53:36;;;;;;;12.65;11.55;;;22.00;1.00;;;;;;4901295;29;20223;-89
2022/09/02 10:56:07;;;;;;;12.70;11.60;;;22.10;1.00;;;;;;4910523;29;20210;-90
2022/09/02 10:58:42;;;;;;;13.15;11.95;;;22.00;1.00;;;;;;4897229;29;20208;-88
2022/09/02 11:01:16;;;;;;;13.02;11.85;;;21.80;1.00;;;;;;4897057;29;20208;-86
2022/09/02 11:03:49;;;;;;;12.77;11.68;;;21.60;1.00;;;;;;4897236;29;20218;-88
2022/09/02 11:06:24;;;;;;;12.32;11.27;;;21.30;1.00;;;;;;4896918;29;20206;-89
2022/09/02 11:08:58;;;;;;;12.23;11.18;;;21.10;1.00;;;;;;4896779;29;20198;-88
2022/09/02 11:11:30;;;;;;;12.23;11.18;;;21.00;1.00;;;;;;4900136;29;20203;-87
2022/09/02 11:14:06;;;;;;;12.65;11.55;;;20.90;1.00;;;;;;4900856;29;20564;-88
2022/09/02 11:16:37;;;;;;;12.32;11.27;;;20.80;1.00;;;;;;4902432;29;20198;-88
2022/09/02 11:19:11;;;;;;;12.18;11.15;;;20.70;1.00;;;;;;4911298;29;20255;-86
2022/09/02 11:21:49;;;;;;;12.15;11.15;;;20.70;1.00;;;;;;4902597;29;20197;-88
2022/09/02 11:24:25;;;;;;;11.30;10.40;;;20.60;1.00;;;;;;4909899;29;20655;-90
2022/09/02 11:26:58;;;;;;;11.23;10.35;;;20.40;1.00;;;;;;4900190;29;20201;-88
2022/09/02 11:29:36;;;;;;;11.02;10.20;;;20.30;1.00;;;;;;4900391;29;20275;-86
2022/09/02 11:32:12;;;;;;;10.15;9.45;;;20.20;1.00;;;;;;4914010;29;20633;-88
2022/09/02 11:34:44;;;;;;;10.85;10.05;;;20.20;1.00;;;;;;4900019;29;20193;-89
2022/09/02 11:37:23;;;;;;;10.95;10.15;;;20.30;1.00;;;;;;4900189;29;20193;-89
2022/09/02 11:39:56;;;;;;;10.77;9.98;;;20.70;1.00;;;;;;4900194;29;20198;-88
2022/09/02 11:42:40;;;;;;;11.25;10.35;;;21.10;1.00;;;;;;4903850;29;20293;-87
2022/09/02 11:45:27;;;;;;;11.32;10.45;;;21.30;1.00;;;;;;4907322;29;20216;-89
2022/09/02 11:48:19;;;;;;;11.40;10.50;;;21.50;1.00;;;;;;4900057;29;20697;-89
2022/09/02 11:51:06;;;;;;;11.13;10.27;;;21.60;1.00;;;;;;4867953;29;20204;-90
2022/09/02 11:53:38;;;;;;;11.23;10.32;;;21.70;1.00;;;;;;4892559;29;20659;-89
2022/09/02 11:56:13;;;;;;;11.55;10.63;;;21.90;1.00;;;;;;4899640;29;20208;-88
2022/09/02 11:58:41;;;;;;;12.38;11.35;;;22.20;1.00;;;;;;4900102;29;20195;-87
2022/09/02 12:01:34;;;;;;;12.70;11.60;;;22.50;1.00;;;;;;4899325;29;20599;-89
2022/09/02 12:04:04;;;;;;;12.85;11.73;;;22.70;1.00;;;;;;4903547;29;20236;-87
2022/09/02 12:06:31;;;;;;;12.60;11.50;;;22.50;1.00;;;;;;4887083;29;20228;-88
2022/09/02 12:09:09;;;;;;;12.13;11.10;;;22.30;1.00;;;;;;4899379;29;20206;-88
2022/09/02 12:11:55;;;;;;;12.18;11.15;;;22.20;1.00;;;;;;4886441;29;20200;-87
2022/09/02 12:15:05;;;;;;;12.50;11.40;;;22.00;1.00;;;;;;4899198;29;20612;-89
2022/09/02 12:18:05;;;;;;;12.40;11.32;;;22.00;1.00;;;;;;4899425;29;20570;-89
2022/09/02 12:21:10;;;;;;;12.55;11.45;;;22.30;1.00;;;;;;4898645;29;20194;-88
2022/09/02 12:24:09;;;;;;;13.15;11.98;;;22.70;1.00;;;;;;4870371;29;20210;-89
2022/09/02 12:27:19;;;;;;;13.73;12.43;;;23.20;1.00;;;;;;4895915;29;20210;-88
2022/09/02 12:29:47;;;;;;;13.00;11.85;;;23.50;1.00;;;;;;4903059;29;20228;-86
2022/09/02 12:33:08;;;;;;;12.77;11.68;;;23.50;1.00;;;;;;4900547;29;20641;-87
2022/09/02 12:35:56;;;;;;;12.85;11.73;;;23.30;1.00;;;;;;4911970;29;20900;-89
2022/09/02 12:38:27;;;;;;;12.75;11.65;;;22.70;1.00;;;;;;4899084;29;20231;-90
2022/09/02 12:41:02;;;;;;;12.65;11.55;;;22.30;1.00;;;;;;4898887;29;20220;-87
2022/09/02 12:43:35;;;;;;;12.20;11.18;;;22.10;1.00;;;;;;4899000;29;20203;-87
2022/09/02 12:46:17;;;;;;;12.35;11.30;;;21.90;1.00;;;;;;4891610;29;20207;-87
2022/09/02 12:48:51;;;;;;;12.10;11.10;;;21.80;1.00;;;;;;4904210;29;20670;-86
2022/09/02 12:51:51;;;;;;;11.80;10.82;;;21.60;1.00;;;;;;4899424;29;20235;-88
2022/09/02 12:54:23;;;;;;;10.38;9.52;;;21.50;1.00;;;;;;4898890;29;20271;-90
2022/09/02 12:56:50;;;;;;;12.00;11.00;;;21.40;1.00;;;;;;4897483;29;20196;-85
2022/09/02 12:59:30;;;;;;;12.32;11.30;;;21.20;1.00;;;;;;4897748;29;20553;-87
2022/09/02 13:02:29;;;;;;;10.55;9.70;;;21.20;1.00;;;;;;4903083;29;20210;-87
2022/09/02 13:05:14;;;;;;;12.15;11.15;;;21.20;1.00;;;;;;4896216;29;20213;-88
2022/09/02 13:08:19;;;;;;;12.23;11.18;;;21.10;1.00;;;;;;4899941;29;20198;-86
2022/09/02 13:11:19;;;;;;;12.25;11.20;;;21.10;1.00;;;;;;4898297;29;20202;-88
2022/09/02 13:14:16;;;;;;;12.25;11.23;;;21.20;1.00;;;;;;4897810;29;20671;-86
2022/09/02 13:16:55;;;;;;;13.00;11.82;;;21.30;1.00;;;;;;4895255;29;20255;-89
2022/09/02 13:20:09;;;;;;;13.13;11.95;;;21.40;1.00;;;;;;4897045;29;20205;-89
2022/09/02 13:22:53;;;;;;;13.00;11.82;;;21.50;1.00;;;;;;4895749;29;20194;-87
2022/09/02 13:26:04;;;;;;;13.30;12.10;;;21.50;1.00;;;;;;4894535;29;20675;-86
2022/09/02 13:28:54;;;;;;;13.27;12.07;;;21.50;1.00;;;;;;4905865;29;20204;-86
2022/09/02 13:31:23;;;;;;;12.98;11.80;;;21.40;1.00;;;;;;4893061;29;20204;-86
2022/09/02 13:33:58;;;;;;;12.65;11.55;;;21.40;1.00;;;;;;4895044;29;20639;-86
2022/09/02 13:36:28;;;;;;;12.90;11.73;;;21.40;1.00;;;;;;4894090;29;20295;-87
2022/09/02 13:38:55;;;;;;;12.75;11.65;;;21.30;1.00;;;;;;4898903;29;20196;-86
2022/09/02 13:41:30;;;;;;;12.63;11.55;;;21.30;1.00;;;;;;4914909;29;20198;-87
2022/09/02 13:44:08;;;;;;;;;;;21.30;1.00;;;;;;4911082;29;20285;-88
2022/09/02 13:46:43;;;;;;;13.45;12.15;;;21.30;1.00;;;;;;4913623;29;20424;-88
2022/09/02 13:49:19;;;;;;;15.70;14.40;;;21.20;1.00;;;;;;4896761;29;20224;-88
2022/09/02 13:51:50;;;;;;;;;;;21.10;1.00;;;;;;4883980;29;20688;-87